Portada
METAR-TAF:

METAR-TAF

Aeroports :

Oskemen, Kazakhstan

latitud: 50-02-10N, longitud: 082-29-39E, altitud: 286 m

Observació

L'informe es va fer fa 38 minuts, a les 17:00 UTC
Vent 12 kt del Nord/Nord-Oest
Temperatura 3°C
Humitat 70%
Pressió 1031 hPa
Visibilitat 10 km o més

METAR: UASK 131700Z 33006MPS 9999 NSC 03/M02 Q1031 R30/CLRD60 NOSIG RMK QFE747/0997

Hora: 23:38 (17:38 UTC)

Pronòstic

L'informe es va fer fa 3 hores i 37 minuts, a les 14:01 UTC
Pronòstic vàlid del 13 a les 15 UTC al 13 a les 24 UTC
Vent 6 kt del Nord-Oest amb ràfegues de 16 kt
Visibilitat 10 km o més
Temporalment
l' 13 a les 15 UTC al 13 a les 21 UTC
Vent 6 kt del Nord amb ràfegues de 16 kt

TAF: UASK 131401Z 1315/1324 32003G08MPS 9999 NSC TEMPO 1315/1321 35003G08MPS

Observacions i pronòstics meteorològics de més de 4000 aeroports (METAR i TAF).

Les estacions disponibles són els punts grocs i vermells al mapa.

Posi el ratolí al punt desitjat per veure el nom de l'estació.

Feu clic per veure les observacions i els pronòstics meteorològics.

Per canviar el mapa: feu clic els botons verds amb una creu de color negre per apropar; al botó verd amb un guió per allunyar la imatge; o en les fletxes verdes per a mapes adjacents.


METAR-TAF: